Data for 05/06/2013

Time Sea-Level Adjusted Pressure Absolute Pressure Temperature Relative Humidity Dew Point   
(mb) (inHg) (mb) (inHg) (C) (F) (%) (C) (F)
00:05 1018 30.06 847 25.01 10.1 50.1 45 -1.2 29.8
00:10 1018 30.06 847 25.01 10.1 50.2 45 -1.2 29.9
00:15 1018 30.06 847 25.01 10 49.9 46 -1.1 30
00:20 1018 30.06 847 25.01 9.9 49.8 46 -1.2 29.9
00:25 1018 30.06 847 25.01 9.8 49.7 46 -1.2 29.8
00:30 1018 30.06 847 25.01 9.8 49.7 46 -1.2 29.8
00:35 1018 30.06 847 25.01 9.8 49.6 46 -1.2 29.8
00:40 1018 30.06 847 25.01 9.8 49.6 46 -1.2 29.8
00:45 1018 30.06 847 25.01 9.7 49.5 47 -1.2 29.9
00:50 1018 30.06 847 25.01 9.6 49.2 47 -1.3 29.7
00:55 1018 30.06 847 25.01 9.6 49.2 46 -1.4 29.5
01:00 1018 30.06 847 25.01 9.6 49.3 47 -1.2 29.8
01:05 1018 30.06 847 25.01 9.4 49 47 -1.3 29.6
01:10 1018 30.06 847 25.01 9.5 49 47 -1.3 29.7
01:15 1018 30.06 847 25.01 9.4 48.9 47 -1.2 29.8
01:20 1018 30.06 847 25.01 9.3 48.8 47 -1.5 29.3
01:25 1018 30.06 847 25.01 9.5 49.2 46 -1.5 29.4
01:30 1018 30.06 847 25.01 9.5 49.1 46 -1.5 29.3
01:35 1018 30.06 847 25.01 9.4 49 46 -1.5 29.3
01:40 1018 30.06 847 25.01 9.4 49 46 -1.6 29.2
01:45 1018 30.06 847 25.01 9.6 49.2 46 -1.5 29.3
01:50 1018 30.06 847 25.01 9.5 49.1 45 -1.7 28.9
01:55 1018 30.06 847 25.01 9.5 49.1 46 -1.5 29.3
02:00 1018 30.06 847 25.01 9.2 48.6 47 -1.4 29.4
02:05 1018 30.06 847 25.01 9.1 48.3 48 -1.4 29.5
02:10 1018 30.06 847 25.01 8.9 48 48 -1.5 29.4
02:15 1018 30.06 847 25.01 8.8 47.9 48 -1.5 29.3
02:20 1018 30.06 847 25.01 8.8 47.8 48 -1.5 29.3
02:25 1018 30.06 847 25.01 8.7 47.6 49 -1.4 29.4
02:30 1018 30.06 847 25.01 8.5 47.3 49 -1.6 29
02:35 1018 30.06 847 25.01 8.6 47.5 48 -1.6 29.1
02:40 1018 30.06 847 25.01 8.4 47.2 50 -1.4 29.4
02:45 1018 30.06 847 25.01 8.5 47.2 49 -1.7 28.9
02:50 1018 30.06 847 25.01 8.4 47.1 50 -1.4 29.5
02:55 1018 30.06 847 25.01 8.1 46.6 51 -1.5 29.4
03:00 1018 30.06 847 25.01 7.9 46.2 51 -1.5 29.3
03:05 1018 30.06 847 25.01 7.8 46 51 -1.7 29
03:10 1018 30.06 847 25.01 8 46.4 50 -1.9 28.6
03:15 1018 30.06 847 25.01 8.3 46.9 49 -1.8 28.7
03:20 1018 30.06 847 25.01 8.3 46.9 49 -1.7 28.9
03:25 1018 30.06 847 25.01 8.2 46.8 50 -1.7 29
03:30 1018 30.06 847 25.01 8.1 46.5 50 -1.7 29
03:35 1018 30.06 847 25.01 8 46.3 51 -1.6 29.1
03:40 1018 30.06 847 25.01 7.9 46.2 51 -1.6 29.1
03:45 1018 30.06 847 25.01 7.8 46.1 51 -1.6 29.1
03:50 1018 30.06 847 25.01 7.8 46.1 51 -1.6 29.1
03:55 1018 30.06 847 25.01 7.7 45.8 52 -1.7 29
04:00 1018 30.06 847 25.01 7.6 45.6 52 -1.7 28.9
04:05 1018 30.06 847 25.01 7.4 45.3 53 -1.6 29
04:10 1018 30.06 847 25.01 7.3 45.1 53 -1.6 29.1
04:15 1018 30.06 847 25.01 7.2 44.9 53 -1.7 28.9
04:20 1018 30.06 847 25.01 7.3 45.1 53 -1.6 29.1
04:25 1018 30.06 847 25.01 7.2 44.9 54 -1.6 29.1
04:30 1018 30.06 847 25.01 7.3 45.1 54 -1.4 29.4
04:35 1018 30.06 847 25.01 7.3 45.1 55 -1.2 29.9
04:40 1018 30.06 847 25.01 6.9 44.5 57 -1 30.3
04:45 1018 30.06 848 25.04 6.6 43.8 59 -0.9 30.4
04:50 1018 30.06 848 25.04 6 42.9 63 -0.5 31.2
04:55 1018 30.06 848 25.04 5.6 42.1 64 -0.7 30.7
05:00 1018 30.06 848 25.04 5.5 41.8 64 -0.7 30.7
05:05 1018 30.06 848 25.04 5.4 41.7 63 -1 30.1
05:10 1018 30.06 848 25.04 5.5 41.9 62 -1.2 29.8
05:15 1018 30.06 848 25.04 5.7 42.3 61 -1.2 29.9
05:20 1018 30.06 848 25.04 5.8 42.4 61 -1.1 30
05:25 1018 30.06 848 25.04 5.8 42.5 62 -0.8 30.6
05:30 1018 30.06 848 25.04 5.6 42.1 63 -0.8 30.5
05:35 1019 30.09 848 25.04 5.5 41.9 64 -0.7 30.7
05:40 1019 30.09 848 25.04 5.4 41.7 65 -0.7 30.8
05:45 1019 30.09 848 25.04 5.6 42 64 -0.7 30.7
05:50 1019 30.09 848 25.04 5.8 42.4 63 -0.7 30.8
05:55 1019 30.09 848 25.04 6 42.8 62 -0.7 30.8
06:00 1019 30.09 848 25.04 6.4 43.5 60 -0.8 30.6
06:05 1019 30.09 848 25.04 7 44.5 59 -0.4 31.2
06:10 1019 30.09 848 25.04 6.6 43.8 62 -0.3 31.5
06:15 1019 30.09 848 25.04 6.3 43.4 60 -0.7 30.7
06:20 1019 30.09 848 25.04 6.7 44 60 -0.6 30.9
06:25 1019 30.09 848 25.04 7 44.5 59 -0.5 31.2
06:30 1019 30.09 848 25.04 7.2 44.9 59 -0.4 31.3
06:35 1019 30.09 848 25.04 7.3 45.2 58 -0.4 31.2
06:40 1019 30.09 848 25.04 7.8 46.1 57 -0.2 31.7
06:45 1019 30.09 848 25.04 7.9 46.2 56 -0.3 31.5
06:50 1019 30.09 848 25.04 8.8 47.9 50 -0.9 30.4
06:55 1019 30.09 848 25.04 9.7 49.5 49 -0.4 31.2
07:00 1019 30.09 848 25.04 9.8 49.6 48 -0.7 30.8
07:05 1019 30.09 848 25.04 10.2 50.3 47 -0.6 31
07:10 1019 30.09 848 25.04 10.6 51.1 44 -0.9 30.3
07:15 1019 30.09 848 25.04 10.3 50.6 45 -0.9 30.3
07:20 1019 30.09 848 25.04 9.9 49.8 45 -1.4 29.5
07:25 1019 30.09 848 25.04 10.1 50.1 45 -1.3 29.6
07:30 1019 30.09 848 25.04 10.7 51.2 43 -1.4 29.5
07:35 1019 30.09 848 25.04 11.3 52.3 41 -1.3 29.6
07:40 1019 30.09 848 25.04 11.7 53 41 -1.2 29.9
07:45 1019 30.09 848 25.04 12 53.6 40 -1.2 29.9
07:50 1019 30.09 848 25.04 12.1 53.7 40 -1 30.2
07:55 1019 30.09 848 25.04 12.4 54.4 38 -1.5 29.3
08:00 1019 30.09 848 25.04 12.7 54.9 38 -1.3 29.7
08:05 1019 30.09 848 25.04 13.1 55.5 38 -0.9 30.3
08:10 1019 30.09 848 25.04 13.1 55.6 39 -0.4 31.2
08:15 1019 30.09 848 25.04 12.7 54.9 38 -1.2 29.9
08:20 1018 30.06 848 25.04 12.9 55.2 38 -1 30.2
08:25 1018 30.06 848 25.04 13.5 56.3 37 -0.8 30.5
08:30 1018 30.06 848 25.04 12.9 55.3 41 0.1 32.1
08:35 1018 30.06 848 25.04 12.9 55.1 39 -0.7 30.7
08:40 1018 30.06 848 25.04 13.6 56.5 37 -0.6 30.9
08:45 1018 30.06 848 25.04 13.8 56.8 38 -0.2 31.6
08:50 1018 30.06 847 25.01 13.7 56.7 36 -1.1 30
08:55 1018 30.06 847 25.01 14.2 57.5 35 -1 30.2
09:00 1018 30.06 847 25.01 14.5 58 34 -1.1 30
09:05 1018 30.06 847 25.01 13.8 56.8 39 0.1 32.2
09:10 1018 30.06 847 25.01 13.2 55.7 38 -0.9 30.4
09:15 1018 30.06 847 25.01 14.1 57.4 37 -0.4 31.2
09:20 1018 30.06 847 25.01 13.6 56.5 36 -1 30.1
09:25 1018 30.06 847 25.01 14.4 58 35 -0.9 30.3
09:30 1018 30.06 847 25.01 14 57.3 37 -0.2 31.7
09:35 1018 30.06 847 25.01 14.6 58.3 35 -0.8 30.6
09:40 1018 30.06 847 25.01 15.4 59.8 33 -0.5 31.1
09:45 1018 30.06 847 25.01 15.5 59.9 33 -0.5 31.1
09:50 1018 30.06 847 25.01 15.8 60.5 33 -0.3 31.5
09:55 1018 30.06 847 25.01 15.1 59.3 34 -0.7 30.8
10:00 1018 30.06 847 25.01 15.4 59.8 33 -0.5 31.1
10:05 1018 30.06 847 25.01 15.9 60.6 35 0.7 33.2
10:10 1018 30.06 847 25.01 16.2 61.2 32 -0.2 31.6
10:15 1018 30.06 847 25.01 16.1 60.9 34 0.4 32.6
10:20 1018 30.06 847 25.01 15.7 60.3 34 -0.2 31.7
10:25 1018 30.06 847 25.01 15.6 60.1 33 -0.7 30.7
10:30 1018 30.06 847 25.01 16.8 62.2 32 0.2 32.4
10:35 1018 30.06 847 25.01 16.4 61.5 33 0.1 32.2
10:40 1018 30.06 847 25.01 15.8 60.4 32 -0.6 30.8
10:45 1018 30.06 847 25.01 15.8 60.4 34 -0 31.9
10:50 1018 30.06 847 25.01 16.3 61.3 31 -0.7 30.7
10:55 1017 30.03 847 25.01 16.9 62.3 30 -0.8 30.6
11:00 1017 30.03 847 25.01 16.9 62.4 32 0 32
11:05 1017 30.03 847 25.01 16.6 61.8 31 -0.6 31
11:10 1017 30.03 846 24.98 18.2 64.8 29 -0.1 31.8
11:15 1017 30.03 846 24.98 18.5 65.2 29 0.4 32.7
11:20 1017 30.03 846 24.98 16.9 62.3 31 -0.3 31.5
11:25 1017 30.03 846 24.98 17.2 63 29 -0.7 30.7
11:30 1017 30.03 846 24.98 18.5 65.3 29 0.2 32.4
11:35 1017 30.03 846 24.98 18.5 65.4 29 0.1 32.2
11:40 1017 30.03 846 24.98 18.1 64.5 29 -0.1 31.9
11:45 1017 30.03 846 24.98 18.3 65 29 -0 31.9
11:50 1017 30.03 846 24.98 18.9 66 27 -0.4 31.3
11:55 1017 30.03 846 24.98 18.6 65.4 27 -0.6 31
12:00 1017 30.03 846 24.98 19.4 66.8 25 -0.8 30.5
12:05 1017 30.03 846 24.98 19.4 66.9 27 -0.2 31.7
12:10 1017 30.03 846 24.98 20 67.9 25 -0.8 30.6
12:15 1016 30 846 24.98 20.1 68.2 24 -0.9 30.4
12:20 1016 30 846 24.98 19.3 66.7 24 -1.4 29.4
12:25 1016 30 846 24.98 19.5 67 25 -0.9 30.5
12:30 1016 30 846 24.98 19.6 67.3 23 -2.1 28.2
12:35 1016 30 845 24.95 20.4 68.7 22 -2 28.4
12:40 1016 30 845 24.95 19.5 67.1 24 -1.7 28.9
12:45 1016 30 845 24.95 20.1 68.2 22 -2.2 28.1
12:50 1016 30 845 24.95 20.4 68.7 22 -2.1 28.2
12:55 1016 30 845 24.95 20.8 69.4 22 -1.3 29.6
13:00 1016 30 845 24.95 20.9 69.5 20 -3 26.5
13:05 1016 30 845 24.95 20.4 68.8 20 -3 26.6
13:10 1016 30 845 24.95 20.2 68.4 20 -3 26.6
13:15 1016 30 845 24.95 20.1 68.2 20 -3.4 25.9
13:20 1016 30 845 24.95 20.3 68.6 20 -3.3 26.1
13:25 1016 30 845 24.95 21 69.8 18 -3.8 25.2
13:30 1016 30 845 24.95 20.8 69.5 20 -2.9 26.8
13:35 1016 30 845 24.95 20.7 69.2 19 -3.5 25.8
13:40 1016 30 845 24.95 20.6 69.1 20 -2.9 26.8
13:45 1016 30 845 24.95 20.5 68.9 19 -3.8 25.1
13:50 1016 30 845 24.95 20.8 69.4 19 -3.7 25.4
13:55 1016 30 845 24.95 21 69.8 21 -1.9 28.6
14:00 1015 29.97 845 24.95 20.1 68.2 20 -3.2 26.2
14:05 1015 29.97 845 24.95 19.9 67.8 21 -3 26.6
14:10 1015 29.97 844 24.92 20.1 68.2 18 -4.5 23.9
14:15 1015 29.97 844 24.92 20.7 69.3 18 -4.4 24.1
14:20 1015 29.97 844 24.92 20.7 69.2 17 -5 23
14:25 1015 29.97 844 24.92 21.4 70.6 17 -4.2 24.5
14:30 1015 29.97 844 24.92 20.7 69.3 20 -3 26.6
14:35 1015 29.97 844 24.92 20.8 69.5 19 -3.7 25.3
14:40 1015 29.97 844 24.92 20.8 69.4 20 -3 26.5
14:45 1015 29.97 844 24.92 20.7 69.2 18 -4.5 23.9
14:50 1015 29.97 844 24.92 20.9 69.6 18 -4 24.8
14:55 1015 29.97 844 24.92 20.9 69.5 18 -4.2 24.5
15:00 1015 29.97 844 24.92 21.4 70.6 18 -4 24.8
15:05 1015 29.97 844 24.92 21.9 71.4 16 -5.3 22.4
15:10 1015 29.97 844 24.92 21.3 70.3 17 -4.4 24.2
15:15 1015 29.97 844 24.92 21.9 71.5 16 -4.9 23.3
15:20 1015 29.97 844 24.92 21.2 70.1 17 -4.5 23.9
15:25 1014 29.94 844 24.92 21.1 70 19 -3.5 25.8
15:30 1014 29.94 844 24.92 21.1 70 19 -3.2 26.2
15:35 1014 29.94 844 24.92 20.9 69.7 20 -2.6 27.3
15:40 1014 29.94 844 24.92 21.5 70.7 18 -3.4 25.8
15:45 1014 29.94 844 24.92 21.6 70.8 18 -3.3 26
15:50 1014 29.94 843 24.89 20.9 69.6 20 -2.4 27.7
15:55 1014 29.94 843 24.89 21.6 70.8 18 -3.4 26
16:00 1014 29.94 843 24.89 21.2 70.2 19 -3.3 26.1
16:05 1014 29.94 843 24.89 21.4 70.4 19 -2.9 26.8
16:10 1014 29.94 843 24.89 21.2 70.1 19 -3 26.5
16:15 1014 29.94 843 24.89 21 69.8 20 -2.6 27.4
16:20 1014 29.94 843 24.89 20.7 69.3 20 -2.8 26.9
16:25 1014 29.94 843 24.89 20.8 69.5 21 -1.9 28.5
16:30 1014 29.94 843 24.89 20.7 69.2 21 -2.1 28.2
16:35 1014 29.94 843 24.89 20.3 68.5 22 -2.2 28
16:40 1014 29.94 843 24.89 20.2 68.3 22 -2 28.5
16:45 1014 29.94 843 24.89 20.3 68.5 22 -1.7 28.9
16:50 1014 29.94 843 24.89 19.9 67.8 23 -1.6 29.2
16:55 1014 29.94 843 24.89 19.9 67.7 22 -2.2 28
17:00 1014 29.94 843 24.89 20.2 68.3 23 -1.7 28.9
17:05 1014 29.94 843 24.89 20.5 68.8 23 -1.5 29.3
17:10 1014 29.94 843 24.89 20 68 23 -1.5 29.2
17:15 1014 29.94 843 24.89 19.9 67.9 23 -1.5 29.2
17:20 1014 29.94 843 24.89 20 68 23 -1.5 29.2
17:25 1014 29.94 843 24.89 20 68.1 23 -1.4 29.4
17:30 1014 29.94 843 24.89 20 68 24 -1.3 29.7
17:35 1014 29.94 843 24.89 19.9 67.8 24 -1.3 29.6
17:40 1014 29.94 843 24.89 19.8 67.7 24 -1.4 29.5
17:45 1014 29.94 843 24.89 19.6 67.3 24 -1.3 29.7
17:50 1014 29.94 843 24.89 19.3 66.8 24 -1.5 29.4
17:55 1014 29.94 843 24.89 19.1 66.4 25 -1.4 29.4
18:00 1014 29.94 843 24.89 19.1 66.4 24 -1.6 29.2
18:05 1014 29.94 843 24.89 19.1 66.3 24 -1.7 29
18:10 1014 29.94 843 24.89 19 66.1 25 -1.4 29.4
18:15 1014 29.94 843 24.89 19 66.1 25 -1.6 29.2
18:20 1014 29.94 843 24.89 18.8 65.9 25 -1.4 29.4
18:25 1014 29.94 843 24.89 18.7 65.7 25 -1.8 28.8
18:30 1014 29.94 843 24.89 18.6 65.6 25 -1.5 29.2
18:35 1014 29.94 843 24.89 18.6 65.4 25 -1.4 29.4
18:40 1014 29.94 843 24.89 18.5 65.3 26 -1.1 30
18:45 1014 29.94 843 24.89 18.4 65.2 26 -1.2 29.9
18:50 1014 29.94 843 24.89 18.3 64.9 26 -1.3 29.7
18:55 1014 29.94 843 24.89 18.2 64.7 27 -1 30.2
19:00 1014 29.94 843 24.89 18 64.5 27 -1.1 30
19:05 1014 29.94 843 24.89 17.9 64.3 27 -1 30.1
19:10 1014 29.94 843 24.89 17.8 64 27 -1.1 29.9
19:15 1014 29.94 843 24.89 17.7 63.8 28 -1.2 29.9
19:20 1014 29.94 843 24.89 17.5 63.6 28 -1.2 29.9
19:25 1014 29.94 843 24.89 17.5 63.4 28 -1.1 29.9
19:30 1014 29.94 843 24.89 17.3 63.1 28 -1.2 29.8
19:35 1014 29.94 843 24.89 17.1 62.9 29 -1.1 30
19:40 1014 29.94 843 24.89 16.9 62.5 29 -1.2 29.9
19:45 1014 29.94 843 24.89 16.8 62.3 29 -1.2 29.9
19:50 1014 29.94 843 24.89 16.6 61.9 30 -1.1 30
19:55 1014 29.94 843 24.89 16.3 61.3 31 -0.9 30.3
20:00 1014 29.94 844 24.92 16 60.7 31 -1 30.1
20:05 1014 29.94 844 24.92 15.8 60.4 31 -1.2 29.9
20:10 1014 29.94 844 24.92 15.8 60.4 31 -1.4 29.6
20:15 1014 29.94 844 24.92 15.8 60.4 31 -1.2 29.9
20:20 1014 29.94 844 24.92 15.7 60.3 31 -1.2 29.8
20:25 1014 29.94 844 24.92 15.7 60.2 30 -1.5 29.2
20:30 1015 29.97 844 24.92 15.7 60.3 31 -1.4 29.5
20:35 1015 29.97 844 24.92 15.7 60.2 30 -1.7 29
20:40 1015 29.97 844 24.92 15.7 60.2 30 -1.7 29
20:45 1015 29.97 844 24.92 15.7 60.2 30 -1.7 28.9
20:50 1015 29.97 844 24.92 15.6 60.1 30 -1.8 28.8
20:55 1015 29.97 844 24.92 15.6 60 30 -1.8 28.7
21:00 1015 29.97 844 24.92 15.4 59.7 31 -1.8 28.8
21:05 1015 29.97 844 24.92 15.2 59.4 31 -1.9 28.6
21:10 1015 29.97 844 24.92 15.2 59.3 30 -2 28.4
21:15 1015 29.97 844 24.92 15.2 59.4 30 -2.1 28.2
21:20 1015 29.97 844 24.92 15.1 59.2 30 -2.2 28
21:25 1015 29.97 844 24.92 15.1 59.2 30 -2.2 28
21:30 1015 29.97 844 24.92 15 59 30 -2.2 28
21:35 1015 29.97 844 24.92 14.9 58.9 30 -2.3 27.9
21:40 1015 29.97 844 24.92 14.9 58.8 31 -2.2 28
21:45 1015 29.97 844 24.92 14.8 58.7 31 -2.3 27.9
21:50 1015 29.97 844 24.92 14.8 58.7 30 -2.3 27.8
21:55 1015 29.97 844 24.92 14.8 58.6 31 -2 28.3
22:00 1015 29.97 844 24.92 14.5 58.1 32 -2 28.4
22:05 1015 29.97 844 24.92 14.1 57.5 33 -1.9 28.7
22:10 1015 29.97 844 24.92 13.7 56.7 33 -2.1 28.2
22:15 1015 29.97 844 24.92 13.6 56.5 34 -2 28.5
22:20 1015 29.97 844 24.92 13.1 55.6 39 -0.4 31.3
22:25 1015 29.97 844 24.92 12 53.6 41 -0.9 30.3
22:30 1015 29.97 844 24.92 12.3 54.1 37 -2 28.4
22:35 1015 29.97 844 24.92 13 55.4 34 -2.4 27.7
22:40 1015 29.97 844 24.92 13.4 56.2 33 -2.4 27.7
22:45 1015 29.97 844 24.92 13.4 56.1 34 -2.2 28.1
22:50 1015 29.97 844 24.92 13.3 55.9 34 -2.2 28
22:55 1015 29.97 844 24.92 13 55.5 35 -2.1 28.2
23:00 1015 29.97 844 24.92 12.9 55.3 34 -2.3 27.8
23:05 1015 29.97 844 24.92 12.9 55.3 34 -2.3 27.8
23:10 1015 29.97 844 24.92 12.9 55.3 35 -2.2 28.1
23:15 1015 29.97 844 24.92 12.8 55 35 -2.3 27.8
23:20 1015 29.97 844 24.92 12.9 55.2 34 -2.7 27.2
23:25 1015 29.97 844 24.92 13.1 55.5 33 -2.8 27
23:30 1015 29.97 844 24.92 13.3 55.9 32 -2.8 27
23:35 1015 29.97 844 24.92 13.4 56.1 33 -2.7 27.1
23:40 1015 29.97 844 24.92 13.3 56 33 -2.7 27.2
23:45 1015 29.97 844 24.92 13.4 56.1 32 -2.7 27.1
23:50 1015 29.97 844 24.92 13.3 56 33 -2.5 27.4
23:55 1015 29.97 844 24.92 13 55.4 34 -2.3 27.9
24:00 1015 29.97 844 24.92 12.6 54.7 35 -2.2 28